createdAt,value
2022-08-17T00:00:34.437Z,72.49
2022-08-17T00:03:18.367Z,72.45
2022-08-17T00:05:56.665Z,72.27
2022-08-17T00:08:31.072Z,72.12
2022-08-17T00:10:59.201Z,72.19
2022-08-17T00:13:36.919Z,72.14
2022-08-17T00:16:14.532Z,72.20
2022-08-17T00:19:01.925Z,72.29
2022-08-17T00:21:49.179Z,72.26
2022-08-17T00:24:18.757Z,72.39
2022-08-17T00:26:47.274Z,72.60
2022-08-17T00:29:19.415Z,72.36
2022-08-17T00:31:48.397Z,72.43
2022-08-17T00:34:15.877Z,72.64
2022-08-17T00:36:43.128Z,72.71
2022-08-17T00:39:10.311Z,72.68
2022-08-17T00:41:37.727Z,72.55
2022-08-17T00:44:12.113Z,72.66
2022-08-17T00:46:42.381Z,72.53
2022-08-17T00:49:12.254Z,72.45
2022-08-17T00:51:46.650Z,72.40
2022-08-17T00:54:23.144Z,72.03
2022-08-17T00:56:57.461Z,72.10
2022-08-17T00:59:32.805Z,72.01
2022-08-17T01:02:00.955Z,71.89
2022-08-17T01:04:30.505Z,71.71
2022-08-17T01:06:58.680Z,72.18
2022-08-17T01:09:26.599Z,72.14
2022-08-17T01:11:54.169Z,72.27
2022-08-17T01:14:26.910Z,71.92
2022-08-17T01:16:56.568Z,72.31
2022-08-17T01:19:29.289Z,72.54
2022-08-17T01:22:11.794Z,72.50
2022-08-17T01:24:44.206Z,72.41
2022-08-17T01:27:14.926Z,72.22
2022-08-17T01:29:52.036Z,72.46
2022-08-17T01:32:20.024Z,72.44
2022-08-17T01:34:50.230Z,72.57
2022-08-17T01:37:21.275Z,72.41
2022-08-17T01:39:54.971Z,72.20
2022-08-17T01:42:52.563Z,72.37
2022-08-17T01:45:25.860Z,72.21
2022-08-17T01:47:54.992Z,72.43
2022-08-17T01:50:30.744Z,72.13
2022-08-17T01:53:09.340Z,72.52
2022-08-17T01:55:48.176Z,72.32
2022-08-17T01:58:15.837Z,71.96
2022-08-17T02:00:59.609Z,72.19
2022-08-17T02:03:29.992Z,72.39
2022-08-17T02:05:57.987Z,72.45
2022-08-17T02:08:37.105Z,72.12
2022-08-17T02:11:15.859Z,71.76
2022-08-17T02:13:45.348Z,72.72
2022-08-17T02:16:13.391Z,72.57
2022-08-17T02:18:41.498Z,72.53
2022-08-17T02:21:10.214Z,72.87
2022-08-17T02:23:42.444Z,72.79
2022-08-17T02:26:09.783Z,72.79
2022-08-17T02:28:53.704Z,72.97
2022-08-17T02:31:21.401Z,72.45
2022-08-17T02:34:04.005Z,72.78
2022-08-17T02:36:33.862Z,72.82
2022-08-17T02:39:07.621Z,72.85
2022-08-17T02:41:34.909Z,72.84
2022-08-17T02:44:02.431Z,72.97
2022-08-17T02:46:31.125Z,73.14
2022-08-17T02:48:59.607Z,72.76
2022-08-17T02:51:27.786Z,72.78
2022-08-17T02:54:05.344Z,72.73
2022-08-17T02:56:42.825Z,72.62
2022-08-17T02:59:10.089Z,72.70
2022-08-17T03:01:37.497Z,72.40
2022-08-17T03:04:05.149Z,72.14
2022-08-17T03:06:32.550Z,72.50
2022-08-17T03:08:59.829Z,72.59
2022-08-17T03:11:27.265Z,72.77
2022-08-17T03:13:54.775Z,72.86
2022-08-17T03:16:22.089Z,72.77
2022-08-17T03:18:49.371Z,72.94
2022-08-17T03:21:16.755Z,72.93
2022-08-17T03:23:44.006Z,73.19
2022-08-17T03:26:15.592Z,73.21
2022-08-17T03:28:43.604Z,72.79
2022-08-17T03:31:11.017Z,72.81
2022-08-17T03:33:38.329Z,73.44
2022-08-17T03:36:06.991Z,73.19
2022-08-17T03:38:38.883Z,72.85
2022-08-17T03:41:07.494Z,73.80
2022-08-17T03:43:34.897Z,73.38
2022-08-17T03:46:28.979Z,73.03
2022-08-17T03:49:26.430Z,73.14
2022-08-17T03:52:16.442Z,73.50
2022-08-17T03:55:14.696Z,73.41
2022-08-17T03:57:42.074Z,73.81
2022-08-17T04:00:10.018Z,73.48
2022-08-17T04:02:37.350Z,73.48
2022-08-17T04:05:05.054Z,73.91
2022-08-17T04:07:32.403Z,74.03
2022-08-17T04:10:00.163Z,73.68
2022-08-17T04:12:31.173Z,73.76
2022-08-17T04:14:59.142Z,73.80
2022-08-17T04:17:28.993Z,74.59
2022-08-17T04:19:56.961Z,74.60
2022-08-17T04:22:31.130Z,74.86
2022-08-17T04:25:05.015Z,74.97
2022-08-17T04:27:32.443Z,74.71
2022-08-17T04:29:59.809Z,75.05
2022-08-17T04:32:58.586Z,75.31
2022-08-17T04:35:21.732Z,75.36
2022-08-17T04:37:49.284Z,75.24
2022-08-17T04:40:37.508Z,75.70
2022-08-17T04:43:14.609Z,75.62
2022-08-17T04:45:51.312Z,75.67
2022-08-17T04:48:32.208Z,75.55
2022-08-17T04:51:11.002Z,76.29
2022-08-17T04:53:40.850Z,76.00
2022-08-17T04:56:11.719Z,75.92
2022-08-17T04:58:50.396Z,75.35
2022-08-17T05:01:23.793Z,74.93
2022-08-17T05:03:53.318Z,75.48
2022-08-17T05:06:20.998Z,75.77
2022-08-17T05:08:48.242Z,75.28
2022-08-17T05:11:15.991Z,74.93
2022-08-17T05:13:43.628Z,74.28
2022-08-17T05:16:11.880Z,73.95
2022-08-17T05:18:39.289Z,73.78
2022-08-17T05:21:07.809Z,73.87
2022-08-17T05:23:43.111Z,74.07
2022-08-17T05:26:25.452Z,73.70
2022-08-17T05:28:55.533Z,74.48
2022-08-17T05:31:25.423Z,74.94
2022-08-17T05:33:53.401Z,74.68
2022-08-17T05:36:42.300Z,74.87
2022-08-17T05:39:08.536Z,74.05
2022-08-17T05:41:42.958Z,73.44
2022-08-17T05:44:10.222Z,73.65
2022-08-17T05:46:44.038Z,72.98
2022-08-17T05:49:15.696Z,72.91
2022-08-17T05:52:13.872Z,73.39
2022-08-17T05:54:55.669Z,73.13
2022-08-17T05:57:54.075Z,73.12
2022-08-17T06:00:30.240Z,73.37
2022-08-17T06:03:41.799Z,72.25
2022-08-17T06:06:41.048Z,71.96
2022-08-17T06:09:11.013Z,72.54
2022-08-17T06:11:53.559Z,72.49
2022-08-17T06:14:52.338Z,72.96
2022-08-17T06:17:24.073Z,72.13
2022-08-17T06:19:59.839Z,71.84
2022-08-17T06:22:33.973Z,72.34
2022-08-17T06:25:10.229Z,71.61
2022-08-17T06:27:53.847Z,73.07
2022-08-17T06:30:36.739Z,71.84
2022-08-17T06:33:37.785Z,72.04
2022-08-17T06:36:29.430Z,71.77
2022-08-17T06:39:33.011Z,69.80
2022-08-17T06:42:54.882Z,69.03
2022-08-17T06:45:22.828Z,66.48
2022-08-17T06:48:14.159Z,66.30
2022-08-17T06:53:48.946Z,66.90
2022-08-17T06:56:54.320Z,66.83
2022-08-17T06:59:55.025Z,66.55
2022-08-17T07:02:53.291Z,67.34
2022-08-17T07:05:27.269Z,66.83
2022-08-17T07:08:19.297Z,67.17
2022-08-17T07:10:57.724Z,66.06
2022-08-17T07:14:04.874Z,65.34
2022-08-17T07:16:41.212Z,65.84
2022-08-17T07:19:10.905Z,65.68
2022-08-17T07:22:09.104Z,65.46
2022-08-17T07:24:59.706Z,64.39
2022-08-17T07:27:32.950Z,64.28
2022-08-17T07:30:10.967Z,63.20
2022-08-17T07:33:09.171Z,61.05
2022-08-17T07:35:48.264Z,60.09
2022-08-17T07:38:24.857Z,60.62
2022-08-17T07:41:03.261Z,58.41
2022-08-17T07:43:39.635Z,56.48
2022-08-17T07:46:51.602Z,52.93
2022-08-17T07:49:36.088Z,51.00
2022-08-17T07:52:50.594Z,46.67
2022-08-17T07:55:35.471Z,48.47
2022-08-17T07:58:03.708Z,48.79
2022-08-17T08:00:33.010Z,49.95
2022-08-17T08:03:34.380Z,52.38
2022-08-17T08:06:03.650Z,52.73
2022-08-17T08:08:38.184Z,55.79
2022-08-17T08:11:12.323Z,56.62
2022-08-17T08:13:45.129Z,56.36
2022-08-17T08:16:24.555Z,57.00
2022-08-17T08:19:02.555Z,55.83
2022-08-17T08:21:56.480Z,57.45
2022-08-17T08:24:37.064Z,58.52
2022-08-17T08:27:55.363Z,58.60
2022-08-17T08:30:23.628Z,57.76
2022-08-17T08:33:41.327Z,56.51
2022-08-17T08:37:14.545Z,57.56
2022-08-17T08:39:47.497Z,58.85
2022-08-17T08:43:04.940Z,58.86
2022-08-17T08:46:09.789Z,59.09
2022-08-17T08:49:11.962Z,58.79
2022-08-17T08:51:52.497Z,58.73
2022-08-17T08:55:05.341Z,59.99
2022-08-17T08:57:40.975Z,59.59
2022-08-17T09:00:17.533Z,57.85
2022-08-17T09:03:52.688Z,59.64
2022-08-17T09:06:51.285Z,58.87
2022-08-17T09:10:27.079Z,60.11
2022-08-17T09:13:54.391Z,57.20
2022-08-17T09:16:58.197Z,58.35
2022-08-17T09:19:49.331Z,57.35
2022-08-17T09:22:36.120Z,55.09
2022-08-17T09:25:28.482Z,58.46
2022-08-17T09:28:08.474Z,59.15
2022-08-17T09:30:47.555Z,59.00
2022-08-17T09:33:26.188Z,57.59
2022-08-17T09:35:57.686Z,58.07
2022-08-17T09:38:49.168Z,55.26
2022-08-17T09:41:38.952Z,53.52
2022-08-17T09:44:23.724Z,55.15
2022-08-17T09:47:25.725Z,53.77
2022-08-17T09:53:03.253Z,56.45
2022-08-17T09:55:51.912Z,52.51
2022-08-17T09:58:29.464Z,51.28
2022-08-17T10:01:33.336Z,53.90
2022-08-17T10:04:29.638Z,54.46
2022-08-17T10:07:15.793Z,51.29
2022-08-17T10:10:04.513Z,53.13
2022-08-17T10:12:53.311Z,52.84
2022-08-17T10:16:12.310Z,51.53
2022-08-17T10:18:47.557Z,50.95
2022-08-17T10:21:36.451Z,50.92
2022-08-17T10:25:21.638Z,51.02
2022-08-17T10:27:58.097Z,50.71
2022-08-17T10:30:29.195Z,51.93
2022-08-17T10:33:03.572Z,49.54
2022-08-17T10:35:49.644Z,49.32
2022-08-17T10:38:25.605Z,49.50
2022-08-17T10:41:27.156Z,49.31
2022-08-17T10:44:37.031Z,50.67
2022-08-17T10:47:08.608Z,50.22
2022-08-17T10:49:39.548Z,47.86
2022-08-17T10:52:28.154Z,48.39
2022-08-17T10:54:58.088Z,47.23
2022-08-17T10:57:34.477Z,48.91
2022-08-17T11:00:37.830Z,48.10
2022-08-17T11:03:20.572Z,48.41
2022-08-17T11:06:38.934Z,48.68
2022-08-17T11:09:23.185Z,50.30
2022-08-17T11:12:15.005Z,47.08
2022-08-17T11:15:14.834Z,47.78
2022-08-17T11:18:42.837Z,46.33
2022-08-17T11:21:47.667Z,47.32
2022-08-17T11:24:30.596Z,48.09
2022-08-17T11:27:30.181Z,47.54
2022-08-17T11:30:13.390Z,45.41
2022-08-17T11:32:54.811Z,45.82
2022-08-17T11:35:22.448Z,45.32
2022-08-17T11:38:28.558Z,46.78
2022-08-17T11:41:10.820Z,47.33
2022-08-17T11:43:43.476Z,47.49
2022-08-17T11:47:00.854Z,45.74
2022-08-17T11:50:10.990Z,46.03
2022-08-17T11:52:48.910Z,45.92
2022-08-17T11:55:38.429Z,44.80
2022-08-17T11:58:16.349Z,46.21
2022-08-17T12:00:46.647Z,46.28
2022-08-17T12:03:26.266Z,44.29
2022-08-17T12:06:04.882Z,42.78
2022-08-17T12:08:34.724Z,44.49
2022-08-17T12:11:19.013Z,45.35
2022-08-17T12:14:07.882Z,44.03
2022-08-17T12:16:35.345Z,43.70
2022-08-17T12:19:05.291Z,44.63
2022-08-17T12:22:33.396Z,44.96
2022-08-17T12:25:20.313Z,41.31
2022-08-17T12:28:04.766Z,43.18
2022-08-17T12:30:34.781Z,42.38
2022-08-17T12:33:02.655Z,43.15
2022-08-17T12:35:39.072Z,44.06
2022-08-17T12:38:26.878Z,44.27
2022-08-17T12:40:59.839Z,45.01
2022-08-17T12:43:32.975Z,43.10
2022-08-17T12:46:15.143Z,42.67
2022-08-17T12:48:59.400Z,44.21
2022-08-17T12:51:29.219Z,43.48
2022-08-17T12:53:57.047Z,42.54
2022-08-17T12:56:24.410Z,43.01
2022-08-17T12:58:53.600Z,43.13
2022-08-17T13:01:23.454Z,44.35
2022-08-17T13:03:54.802Z,43.69
2022-08-17T13:06:35.772Z,43.21
2022-08-17T13:09:35.868Z,43.92
2022-08-17T13:12:08.529Z,44.62
2022-08-17T13:14:36.249Z,43.67
2022-08-17T13:17:09.907Z,43.96
2022-08-17T13:19:50.187Z,41.48
2022-08-17T13:22:23.541Z,41.56
2022-08-17T13:25:08.484Z,41.85
2022-08-17T13:27:35.951Z,43.26
2022-08-17T13:30:12.208Z,42.29
2022-08-17T13:32:48.691Z,41.82
2022-08-17T13:35:45.931Z,42.22
2022-08-17T13:38:45.812Z,41.67
2022-08-17T13:41:35.742Z,41.46
2022-08-17T13:44:23.370Z,41.15
2022-08-17T13:46:57.117Z,42.06
2022-08-17T13:49:24.741Z,42.56
2022-08-17T13:52:33.861Z,43.01
2022-08-17T13:55:06.925Z,41.68
2022-08-17T13:57:35.561Z,42.38
2022-08-17T14:00:30.658Z,41.96
2022-08-17T14:03:04.062Z,42.45
2022-08-17T14:05:33.801Z,42.87
2022-08-17T14:08:06.805Z,43.41
2022-08-17T14:10:36.503Z,42.92
2022-08-17T14:13:05.022Z,43.47
2022-08-17T14:15:55.792Z,43.75
2022-08-17T14:18:42.035Z,43.30
2022-08-17T14:21:08.530Z,44.04
2022-08-17T14:23:36.834Z,42.46
2022-08-17T14:26:05.635Z,42.78
2022-08-17T14:28:33.084Z,43.16
2022-08-17T14:31:03.688Z,42.88
2022-08-17T14:33:30.920Z,42.89
2022-08-17T14:35:58.298Z,43.12
2022-08-17T14:38:25.575Z,43.69
2022-08-17T14:40:53.516Z,42.77
2022-08-17T14:43:21.079Z,42.56
2022-08-17T14:45:48.338Z,42.22
2022-08-17T14:48:15.963Z,43.58
2022-08-17T14:50:44.316Z,43.37
2022-08-17T14:53:16.179Z,43.66
2022-08-17T14:55:47.206Z,43.85
2022-08-17T14:58:15.932Z,43.50
2022-08-17T15:00:43.751Z,42.45
2022-08-17T15:03:11.869Z,41.31
2022-08-17T15:05:40.143Z,42.22
2022-08-17T15:08:08.603Z,42.42
2022-08-17T15:10:37.053Z,43.20
2022-08-17T15:13:04.757Z,43.80
2022-08-17T15:15:32.095Z,44.23
2022-08-17T15:18:00.077Z,43.99
2022-08-17T15:20:30.371Z,42.93
2022-08-17T15:22:59.036Z,43.05
2022-08-17T15:25:32.382Z,42.85
2022-08-17T15:28:01.295Z,43.06
2022-08-17T15:30:30.015Z,43.05
2022-08-17T15:32:59.427Z,42.86
2022-08-17T15:35:32.726Z,42.35
2022-08-17T15:38:10.583Z,42.48
2022-08-17T15:40:44.055Z,43.49
2022-08-17T15:43:23.319Z,42.37
2022-08-17T15:46:01.969Z,42.95
2022-08-17T15:48:43.933Z,42.74
2022-08-17T15:51:28.251Z,42.98
2022-08-17T15:54:00.376Z,42.21
2022-08-17T15:56:32.178Z,42.52
2022-08-17T15:59:00.194Z,42.57
2022-08-17T16:03:01.824Z,42.40
2022-08-17T16:04:30.382Z,43.21
2022-08-17T16:06:59.758Z,43.05
2022-08-17T16:09:27.776Z,42.79
2022-08-17T16:11:56.140Z,42.31
2022-08-17T16:14:33.711Z,43.18
2022-08-17T16:17:04.662Z,43.22
2022-08-17T16:19:33.393Z,42.66
2022-08-17T16:22:01.077Z,43.78
2022-08-17T16:24:28.427Z,43.65
2022-08-17T16:26:55.901Z,43.94
2022-08-17T16:29:23.302Z,43.91
2022-08-17T16:31:51.433Z,44.50
2022-08-17T16:34:19.106Z,44.36
2022-08-17T16:36:53.581Z,44.96
2022-08-17T16:39:29.434Z,45.52
2022-08-17T16:41:57.559Z,45.20
2022-08-17T16:44:31.827Z,44.96
2022-08-17T16:47:01.370Z,45.20
2022-08-17T16:49:37.382Z,45.42
2022-08-17T16:52:10.697Z,45.75
2022-08-17T16:54:43.745Z,45.41
2022-08-17T16:57:13.268Z,45.66
2022-08-17T16:59:44.901Z,46.15
2022-08-17T17:02:17.302Z,46.35
2022-08-17T17:05:19.301Z,47.72
2022-08-17T17:08:08.962Z,48.46
2022-08-17T17:10:50.104Z,48.43
2022-08-17T17:13:26.776Z,49.38
2022-08-17T17:16:01.360Z,49.69
2022-08-17T17:18:42.729Z,50.02
2022-08-17T17:21:15.205Z,49.97
2022-08-17T17:23:59.770Z,50.29
2022-08-17T17:26:49.683Z,50.50
2022-08-17T17:29:48.817Z,51.08
2022-08-17T17:32:41.594Z,51.25
2022-08-17T17:35:17.567Z,51.39
2022-08-17T17:37:46.780Z,51.95
2022-08-17T17:40:24.584Z,52.88
2022-08-17T17:42:55.514Z,53.38
2022-08-17T17:45:36.110Z,54.43
2022-08-17T17:48:03.708Z,54.30
2022-08-17T17:50:43.942Z,54.24
2022-08-17T17:53:41.835Z,54.43
2022-08-17T17:56:43.743Z,53.75
2022-08-17T17:59:23.001Z,53.90
2022-08-17T18:01:59.950Z,53.58
2022-08-17T18:04:36.279Z,54.41
2022-08-17T18:07:23.903Z,54.27
2022-08-17T18:10:19.567Z,53.89
2022-08-17T18:13:22.025Z,54.29
2022-08-17T18:15:55.741Z,54.72
2022-08-17T18:18:38.801Z,54.55
2022-08-17T18:21:16.967Z,54.91
2022-08-17T18:24:07.627Z,55.51
2022-08-17T18:26:37.884Z,55.24
2022-08-17T18:29:22.593Z,55.45
2022-08-17T18:32:19.777Z,55.74
2022-08-17T18:34:51.976Z,55.84
2022-08-17T18:37:49.372Z,56.45
2022-08-17T18:40:19.814Z,55.86
2022-08-17T18:43:11.517Z,56.37
2022-08-17T18:45:51.335Z,56.27
2022-08-17T18:51:40.629Z,56.76
2022-08-17T18:54:25.469Z,56.85
2022-08-17T18:56:56.783Z,56.54
2022-08-17T18:59:45.384Z,56.81
2022-08-17T19:02:22.083Z,56.84
2022-08-17T19:05:13.653Z,56.58
2022-08-17T19:07:48.167Z,57.60
2022-08-17T19:10:46.354Z,57.50
2022-08-17T19:13:24.372Z,57.16
2022-08-17T19:16:15.002Z,58.14
2022-08-17T19:19:15.043Z,58.55
2022-08-17T19:22:13.713Z,58.09
2022-08-17T19:25:16.931Z,57.84
2022-08-17T19:28:01.798Z,58.72
2022-08-17T19:30:30.933Z,58.52
2022-08-17T19:32:58.517Z,58.39
2022-08-17T19:35:46.135Z,58.57
2022-08-17T19:38:34.938Z,58.73
2022-08-17T19:41:30.036Z,58.41
2022-08-17T19:44:01.511Z,58.23
2022-08-17T19:46:50.052Z,58.45
2022-08-17T19:49:52.127Z,58.50
2022-08-17T19:53:47.385Z,58.71
2022-08-17T19:56:25.389Z,58.83
2022-08-17T19:59:51.627Z,58.83
2022-08-17T20:02:26.503Z,59.04
2022-08-17T20:05:01.483Z,58.93
2022-08-17T20:08:00.996Z,58.96
2022-08-17T20:11:01.744Z,59.25
2022-08-17T20:13:50.535Z,59.29
2022-08-17T20:16:19.931Z,59.57
2022-08-17T20:19:01.825Z,59.29
2022-08-17T20:21:53.285Z,59.00
2022-08-17T20:24:35.865Z,59.20
2022-08-17T20:27:12.083Z,59.13
2022-08-17T20:30:00.706Z,58.75
2022-08-17T20:32:52.023Z,58.85
2022-08-17T20:35:33.305Z,59.20
2022-08-17T20:38:12.275Z,59.16
2022-08-17T20:41:04.079Z,59.09
2022-08-17T20:43:34.583Z,59.51
2022-08-17T20:46:38.410Z,60.24
2022-08-17T20:49:15.043Z,59.86
2022-08-17T20:52:09.922Z,59.94
2022-08-17T20:54:54.350Z,59.68
2022-08-17T20:57:36.751Z,59.38
2022-08-17T21:00:17.037Z,59.08
2022-08-17T21:02:52.349Z,59.49
2022-08-17T21:05:59.836Z,60.18
2022-08-17T21:08:36.464Z,59.93
2022-08-17T21:12:02.788Z,60.38
2022-08-17T21:14:34.424Z,60.22
2022-08-17T21:17:19.560Z,60.23
2022-08-17T21:20:12.222Z,60.22
2022-08-17T21:23:05.304Z,60.15
2022-08-17T21:25:51.614Z,60.63
2022-08-17T21:28:36.902Z,60.56
2022-08-17T21:31:41.037Z,60.42
2022-08-17T21:34:17.139Z,60.17
2022-08-17T21:36:46.253Z,60.20
2022-08-17T21:39:24.231Z,59.68
2022-08-17T21:42:00.740Z,59.97
2022-08-17T21:44:46.373Z,59.96
2022-08-17T21:47:24.688Z,60.03
2022-08-17T21:49:54.210Z,60.38
2022-08-17T21:52:24.939Z,60.25
2022-08-17T21:54:58.179Z,60.97
2022-08-17T21:57:27.843Z,60.56
2022-08-17T22:00:01.897Z,60.85
2022-08-17T22:02:35.653Z,60.40
2022-08-17T22:05:07.697Z,61.02
2022-08-17T22:07:51.028Z,60.66
2022-08-17T22:10:41.151Z,60.98
2022-08-17T22:13:24.338Z,61.17
2022-08-17T22:16:28.648Z,61.62
2022-08-17T22:18:58.128Z,61.04
2022-08-17T22:21:26.264Z,61.46
2022-08-17T22:24:21.718Z,61.31
2022-08-17T22:26:59.808Z,62.09
2022-08-17T22:29:58.630Z,62.17
2022-08-17T22:32:32.125Z,61.74
2022-08-17T22:35:27.115Z,61.75
2022-08-17T22:37:55.217Z,61.48
2022-08-17T22:40:32.905Z,61.92
2022-08-17T22:43:03.624Z,62.11
2022-08-17T22:45:31.396Z,62.28
2022-08-17T22:48:02.236Z,62.14
2022-08-17T22:50:33.214Z,61.87
2022-08-17T22:53:35.214Z,61.82
2022-08-17T22:56:20.733Z,62.61
2022-08-17T22:59:14.297Z,62.14
2022-08-17T23:01:45.363Z,62.00
2022-08-17T23:04:36.589Z,62.14
2022-08-17T23:07:04.114Z,62.12
2022-08-17T23:09:31.400Z,62.11
2022-08-17T23:11:59.565Z,62.36
2022-08-17T23:14:31.918Z,62.46
2022-08-17T23:16:59.858Z,62.51
2022-08-17T23:19:28.610Z,62.45
2022-08-17T23:21:57.654Z,62.67
2022-08-17T23:24:32.014Z,63.17
2022-08-17T23:26:59.405Z,63.46
2022-08-17T23:29:29.459Z,63.26
2022-08-17T23:32:01.333Z,63.21
2022-08-17T23:34:29.359Z,62.80
2022-08-17T23:36:56.682Z,62.71
2022-08-17T23:39:27.818Z,62.70
2022-08-17T23:41:59.417Z,62.20
2022-08-17T23:44:27.414Z,62.55
2022-08-17T23:46:55.203Z,62.79
2022-08-17T23:49:23.546Z,62.78
2022-08-17T23:51:52.495Z,62.73
2022-08-17T23:54:33.721Z,62.79
2022-08-17T23:57:02.784Z,62.87
2022-08-17T23:59:30.062Z,62.99
